createdAt,value
2018-11-06T00:00:16.991Z,87.23
2018-11-06T00:02:47.427Z,90.87
2018-11-06T00:05:18.015Z,113.40
2018-11-06T00:07:47.221Z,100.57
2018-11-06T00:10:16.664Z,87.20
2018-11-06T00:12:45.821Z,89.80
2018-11-06T00:15:15.027Z,86.17
2018-11-06T00:17:44.250Z,96.73
2018-11-06T00:20:14.559Z,76.43
2018-11-06T00:22:43.805Z,79.33
2018-11-06T00:25:13.778Z,96.00
2018-11-06T00:27:43.059Z,74.50
2018-11-06T00:30:13.688Z,83.07
2018-11-06T00:32:43.316Z,86.13
2018-11-06T00:35:13.747Z,74.90
2018-11-06T00:37:43.735Z,73.40
2018-11-06T00:40:13.215Z,79.90
2018-11-06T00:42:42.405Z,70.77
2018-11-06T00:45:13.311Z,70.87
2018-11-06T00:47:42.759Z,70.00
2018-11-06T00:50:12.635Z,71.50
2018-11-06T00:52:42.840Z,72.50
2018-11-06T00:55:12.164Z,58.40
2018-11-06T00:57:42.773Z,62.17
2018-11-06T01:00:14.816Z,59.90
2018-11-06T01:02:44.032Z,61.77
2018-11-06T01:05:14.106Z,59.07
2018-11-06T01:07:43.995Z,55.07
2018-11-06T01:10:13.215Z,54.50
2018-11-06T01:12:42.417Z,54.40
2018-11-06T01:15:13.706Z,56.40
2018-11-06T01:17:44.066Z,55.30
2018-11-06T01:20:14.973Z,55.47
2018-11-06T01:22:44.376Z,55.97
2018-11-06T01:25:13.912Z,54.97
2018-11-06T01:27:43.064Z,57.03
2018-11-06T01:30:17.405Z,56.10
2018-11-06T01:32:47.045Z,55.50
2018-11-06T01:35:16.766Z,53.93
2018-11-06T01:37:46.567Z,53.40
2018-11-06T01:40:17.089Z,60.97
2018-11-06T01:42:46.879Z,61.07
2018-11-06T01:45:17.053Z,59.53
2018-11-06T01:47:46.192Z,58.93
2018-11-06T01:50:16.533Z,62.10
2018-11-06T01:52:46.626Z,63.40
2018-11-06T01:55:15.870Z,63.60
2018-11-06T01:57:45.112Z,59.87
2018-11-06T02:00:16.145Z,57.37
2018-11-06T02:02:45.404Z,55.47
2018-11-06T02:05:15.704Z,65.60
2018-11-06T02:07:46.191Z,64.13
2018-11-06T02:10:15.925Z,58.33
2018-11-06T02:12:45.918Z,58.03
2018-11-06T02:15:15.147Z,53.80
2018-11-06T02:17:45.093Z,52.27
2018-11-06T02:20:15.100Z,58.80
2018-11-06T02:22:45.155Z,52.90
2018-11-06T02:25:14.499Z,56.70
2018-11-06T02:27:43.657Z,57.83
2018-11-06T02:30:14.545Z,55.23
2018-11-06T02:32:44.558Z,56.93
2018-11-06T02:35:13.759Z,53.43
2018-11-06T02:37:42.981Z,54.03
2018-11-06T02:40:13.424Z,54.77
2018-11-06T02:42:43.046Z,55.57
2018-11-06T02:45:13.126Z,60.27
2018-11-06T02:47:42.743Z,57.57
2018-11-06T02:50:12.793Z,54.60
2018-11-06T02:52:42.436Z,51.73
2018-11-06T02:55:11.949Z,56.00
2018-11-06T02:57:41.787Z,53.10
2018-11-06T03:00:13.812Z,60.47
2018-11-06T03:02:43.559Z,55.50
2018-11-06T03:05:12.762Z,47.33
2018-11-06T03:07:42.363Z,46.67
2018-11-06T03:10:12.759Z,44.87
2018-11-06T03:12:42.836Z,42.97
2018-11-06T03:15:13.117Z,43.57
2018-11-06T03:17:42.295Z,37.43
2018-11-06T03:20:12.098Z,41.27
2018-11-06T03:22:41.812Z,44.83
2018-11-06T03:25:11.149Z,41.90
2018-11-06T03:27:40.320Z,37.27
2018-11-06T03:30:11.645Z,40.97
2018-11-06T03:32:40.934Z,44.30
2018-11-06T03:35:11.406Z,47.03
2018-11-06T03:37:40.559Z,53.13
2018-11-06T03:40:18.966Z,44.27
2018-11-06T03:42:48.080Z,47.07
2018-11-06T03:45:17.211Z,46.40
2018-11-06T03:47:46.387Z,42.60
2018-11-06T03:50:15.526Z,48.80
2018-11-06T03:52:44.608Z,52.53
2018-11-06T03:55:20.340Z,46.00
2018-11-06T03:57:49.476Z,52.03
2018-11-06T04:00:18.612Z,43.17
2018-11-06T04:02:47.805Z,48.93
2018-11-06T04:05:16.922Z,46.13
2018-11-06T04:07:46.047Z,45.17
2018-11-06T04:10:15.263Z,42.70
2018-11-06T04:12:44.399Z,48.23
2018-11-06T04:15:14.394Z,46.60
2018-11-06T04:17:44.535Z,43.67
2018-11-06T04:20:13.669Z,50.93
2018-11-06T04:22:43.152Z,40.70
2018-11-06T04:25:12.266Z,46.93
2018-11-06T04:27:41.504Z,46.03
2018-11-06T04:30:12.493Z,40.60
2018-11-06T04:32:42.454Z,49.63
2018-11-06T04:35:12.195Z,45.87
2018-11-06T04:37:42.013Z,46.97
2018-11-06T04:40:13.016Z,45.60
2018-11-06T04:42:42.200Z,49.30
2018-11-06T04:45:12.127Z,44.83
2018-11-06T04:47:41.286Z,45.10
2018-11-06T04:50:11.360Z,49.93
2018-11-06T04:52:40.888Z,38.83
2018-11-06T04:55:11.104Z,39.43
2018-11-06T04:57:40.330Z,37.57
2018-11-06T05:00:11.533Z,42.83
2018-11-06T05:02:41.044Z,64.10
2018-11-06T05:05:10.636Z,46.67
2018-11-06T05:07:40.361Z,43.67
2018-11-06T05:10:11.648Z,43.70
2018-11-06T05:12:40.807Z,52.33
2018-11-06T05:15:12.039Z,46.60
2018-11-06T05:17:41.218Z,50.30
2018-11-06T05:20:14.222Z,39.37
2018-11-06T05:22:43.936Z,47.10
2018-11-06T05:25:13.209Z,56.53
2018-11-06T05:27:42.320Z,42.67
2018-11-06T05:30:12.307Z,41.20
2018-11-06T05:32:42.910Z,43.23
2018-11-06T05:35:12.486Z,44.33
2018-11-06T05:37:41.801Z,42.57
2018-11-06T05:40:21.824Z,47.00
2018-11-06T05:42:50.992Z,47.07
2018-11-06T05:45:20.163Z,42.57
2018-11-06T05:47:49.305Z,44.37
2018-11-06T05:50:18.433Z,41.83
2018-11-06T05:52:47.685Z,43.03
2018-11-06T05:55:16.739Z,45.30
2018-11-06T05:57:45.932Z,33.33
2018-11-06T06:00:15.099Z,41.10
2018-11-06T06:02:44.245Z,37.63
2018-11-06T06:05:13.345Z,39.50
2018-11-06T06:07:42.465Z,40.23
2018-11-06T06:10:11.656Z,31.50
2018-11-06T06:12:40.796Z,27.20
2018-11-06T06:15:10.221Z,29.17
2018-11-06T06:17:39.301Z,41.20
2018-11-06T06:20:09.247Z,34.23
2018-11-06T06:22:38.682Z,48.93
2018-11-06T06:25:07.953Z,61.20
2018-11-06T06:27:37.222Z,46.93
2018-11-06T06:30:08.835Z,57.43
2018-11-06T06:32:38.101Z,83.47
2018-11-06T06:35:07.387Z,77.50
2018-11-06T06:37:36.523Z,88.73
2018-11-06T06:40:06.715Z,83.60
2018-11-06T06:42:35.917Z,82.53
2018-11-06T06:45:05.538Z,71.97
2018-11-06T06:47:34.717Z,65.63
2018-11-06T06:50:03.956Z,65.57
2018-11-06T06:52:33.156Z,70.70
2018-11-06T06:55:02.332Z,81.53
2018-11-06T06:57:31.361Z,73.17
2018-11-06T07:00:00.504Z,63.13
2018-11-06T07:02:29.756Z,87.43
2018-11-06T07:04:58.819Z,71.47
2018-11-06T07:07:27.941Z,75.40
2018-11-06T07:09:57.017Z,69.27
2018-11-06T07:12:26.185Z,67.83
2018-11-06T07:14:55.415Z,65.80
2018-11-06T07:17:24.651Z,62.37
2018-11-06T07:19:53.768Z,66.73
2018-11-06T07:22:22.917Z,68.67
2018-11-06T07:24:52.045Z,60.70
2018-11-06T07:27:21.171Z,62.27
2018-11-06T07:29:50.491Z,60.20
2018-11-06T07:32:19.600Z,61.83
2018-11-06T07:34:48.795Z,56.80
2018-11-06T07:37:17.865Z,47.83
2018-11-06T07:39:47.086Z,52.70
2018-11-06T07:42:16.251Z,48.10
2018-11-06T07:44:45.366Z,46.03
2018-11-06T07:47:14.540Z,45.93
2018-11-06T07:49:43.716Z,52.33
2018-11-06T07:52:12.842Z,51.27
2018-11-06T07:54:41.954Z,53.27
2018-11-06T07:57:11.214Z,52.83
2018-11-06T07:59:40.359Z,48.97
2018-11-06T08:02:09.506Z,48.33
2018-11-06T08:04:38.662Z,49.03
2018-11-06T08:07:07.782Z,51.10
2018-11-06T08:09:37.028Z,51.53
2018-11-06T08:12:06.539Z,47.67
2018-11-06T08:14:36.003Z,43.70
2018-11-06T08:17:05.731Z,43.03
2018-11-06T08:19:34.974Z,45.80
2018-11-06T08:22:04.234Z,44.97
2018-11-06T08:24:33.424Z,39.50
2018-11-06T08:27:02.652Z,45.27
2018-11-06T08:29:31.852Z,47.53
2018-11-06T08:32:01.454Z,45.77
2018-11-06T08:34:30.174Z,46.60
2018-11-06T08:36:59.312Z,45.93
2018-11-06T08:39:28.450Z,51.33
2018-11-06T08:41:57.655Z,49.50
2018-11-06T08:44:26.843Z,43.07
2018-11-06T08:46:55.896Z,46.33
2018-11-06T08:49:25.511Z,47.93
2018-11-06T08:51:54.664Z,47.93
2018-11-06T08:54:23.761Z,40.77
2018-11-06T08:56:52.944Z,41.30
2018-11-06T08:59:22.084Z,47.63
2018-11-06T09:01:51.419Z,43.73
2018-11-06T09:04:20.579Z,47.00
2018-11-06T09:06:49.672Z,46.97
2018-11-06T09:09:18.832Z,48.57
2018-11-06T09:11:47.906Z,42.77
2018-11-06T09:14:17.033Z,43.50
2018-11-06T09:16:46.161Z,42.90
2018-11-06T09:19:15.327Z,45.13
2018-11-06T09:21:44.394Z,47.50
2018-11-06T09:24:13.539Z,48.17
2018-11-06T09:26:42.691Z,48.20
2018-11-06T09:29:11.970Z,48.87
2018-11-06T09:31:41.247Z,49.43
2018-11-06T09:34:10.447Z,44.37
2018-11-06T09:36:39.616Z,38.17
2018-11-06T09:39:10.554Z,38.87
2018-11-06T09:41:40.081Z,39.97
2018-11-06T09:44:09.346Z,43.07
2018-11-06T09:46:38.992Z,36.90
2018-11-06T09:49:08.736Z,36.33
2018-11-06T09:51:38.134Z,32.90
2018-11-06T09:54:07.484Z,38.87
2018-11-06T09:56:36.658Z,37.83
2018-11-06T09:59:05.826Z,37.10
2018-11-06T10:01:39.931Z,33.03
2018-11-06T10:04:09.111Z,36.13
2018-11-06T10:06:38.418Z,35.57
2018-11-06T10:09:09.579Z,32.90
2018-11-06T10:11:39.070Z,41.23
2018-11-06T10:14:08.445Z,34.70
2018-11-06T10:16:37.974Z,28.60
2018-11-06T10:19:07.139Z,29.90
2018-11-06T10:21:36.342Z,31.83
2018-11-06T10:24:06.209Z,35.40
2018-11-06T10:26:35.441Z,34.97
2018-11-06T10:29:04.789Z,37.73
2018-11-06T10:31:34.579Z,34.57
2018-11-06T10:34:07.942Z,32.67
2018-11-06T10:36:37.194Z,35.87
2018-11-06T10:39:09.495Z,34.00
2018-11-06T10:41:38.599Z,38.43
2018-11-06T10:44:07.818Z,36.33
2018-11-06T10:46:37.109Z,35.17
2018-11-06T10:49:06.956Z,34.40
2018-11-06T10:51:36.113Z,30.90
2018-11-06T10:54:05.405Z,33.40
2018-11-06T10:56:34.604Z,35.40
2018-11-06T10:59:03.720Z,36.60
2018-11-06T11:01:37.928Z,34.10
2018-11-06T11:04:12.352Z,40.47
2018-11-06T11:06:45.094Z,36.43
2018-11-06T11:09:14.309Z,35.67
2018-11-06T11:11:43.502Z,32.67
2018-11-06T11:14:12.781Z,34.33
2018-11-06T11:16:42.033Z,38.57
2018-11-06T11:19:11.334Z,30.97
2018-11-06T11:21:40.525Z,35.60
2018-11-06T11:24:09.690Z,34.67
2018-11-06T11:26:38.845Z,36.87
2018-11-06T11:29:08.011Z,30.23
2018-11-06T11:31:37.279Z,38.00
2018-11-06T11:34:06.452Z,33.30
2018-11-06T11:36:35.556Z,33.07
2018-11-06T11:39:06.040Z,33.10
2018-11-06T11:41:35.296Z,30.33
2018-11-06T11:44:04.510Z,32.63
2018-11-06T11:46:33.652Z,39.90
2018-11-06T11:49:02.886Z,34.27
2018-11-06T11:51:32.015Z,39.07
2018-11-06T11:54:01.192Z,36.07
2018-11-06T11:56:30.363Z,35.47
2018-11-06T11:58:59.521Z,35.43
2018-11-06T12:01:28.719Z,35.10
2018-11-06T12:03:57.919Z,36.37
2018-11-06T12:06:27.222Z,39.67
2018-11-06T12:08:56.480Z,34.13
2018-11-06T12:11:25.672Z,35.40
2018-11-06T12:13:54.891Z,38.23
2018-11-06T12:16:24.140Z,41.00
2018-11-06T12:18:53.304Z,38.03
2018-11-06T12:21:22.434Z,36.40
2018-11-06T12:23:51.695Z,32.63
2018-11-06T12:26:20.860Z,32.50
2018-11-06T12:28:50.104Z,35.47
2018-11-06T12:31:19.216Z,37.10
2018-11-06T12:33:48.371Z,40.50
2018-11-06T12:36:17.581Z,37.13
2018-11-06T12:38:46.756Z,33.40
2018-11-06T12:41:15.883Z,33.40
2018-11-06T12:43:45.064Z,34.07
2018-11-06T12:46:14.253Z,34.33
2018-11-06T12:48:43.471Z,33.37
2018-11-06T12:51:12.554Z,34.43
2018-11-06T12:53:45.660Z,32.00
2018-11-06T12:56:14.832Z,39.87
2018-11-06T12:58:44.014Z,34.70
2018-11-06T13:01:13.175Z,36.53
2018-11-06T13:03:42.326Z,36.10
2018-11-06T13:06:11.611Z,33.53
2018-11-06T13:08:40.769Z,35.97
2018-11-06T13:11:09.967Z,35.63
2018-11-06T13:13:39.106Z,34.27
2018-11-06T13:16:08.371Z,36.43
2018-11-06T13:18:37.460Z,38.67
2018-11-06T13:21:06.656Z,37.03
2018-11-06T13:23:35.786Z,39.60
2018-11-06T13:26:05.023Z,38.37
2018-11-06T13:28:34.205Z,38.30
2018-11-06T13:31:03.412Z,43.07
2018-11-06T13:33:32.621Z,41.97
2018-11-06T13:36:01.865Z,40.73
2018-11-06T13:38:31.595Z,43.37
2018-11-06T13:41:00.800Z,37.37
2018-11-06T13:43:29.958Z,43.80
2018-11-06T13:45:59.198Z,42.80
2018-11-06T13:48:28.321Z,46.73
2018-11-06T13:50:57.445Z,42.17
2018-11-06T13:53:26.591Z,49.93
2018-11-06T13:55:55.773Z,43.60
2018-11-06T13:58:24.931Z,44.70
2018-11-06T14:00:54.036Z,41.40
2018-11-06T14:03:23.204Z,41.77
2018-11-06T14:05:52.481Z,41.47
2018-11-06T14:08:21.700Z,44.70
2018-11-06T14:10:50.895Z,44.30
2018-11-06T14:13:20.070Z,44.97
2018-11-06T14:15:49.224Z,41.53
2018-11-06T14:18:18.317Z,45.27
2018-11-06T14:20:47.438Z,46.40
2018-11-06T14:23:16.574Z,49.50
2018-11-06T14:25:45.733Z,45.07
2018-11-06T14:28:14.863Z,49.90
2018-11-06T14:30:44.018Z,44.53
2018-11-06T14:33:13.135Z,48.30
2018-11-06T14:35:42.348Z,45.97
2018-11-06T14:38:11.529Z,53.03
2018-11-06T14:40:40.673Z,47.03
2018-11-06T14:43:09.875Z,44.30
2018-11-06T14:45:38.980Z,51.33
2018-11-06T14:48:08.158Z,45.37
2018-11-06T14:50:37.351Z,49.90
2018-11-06T14:53:06.528Z,45.70
2018-11-06T14:55:35.645Z,46.37
2018-11-06T14:58:04.763Z,52.57
2018-11-06T15:00:33.901Z,51.17
2018-11-06T15:03:03.023Z,50.83
2018-11-06T15:05:32.259Z,45.13
2018-11-06T15:08:01.425Z,51.67
2018-11-06T15:10:30.640Z,50.93
2018-11-06T15:12:59.751Z,50.10
2018-11-06T15:15:28.909Z,52.63
2018-11-06T15:17:58.003Z,52.47
2018-11-06T15:20:27.145Z,47.27
2018-11-06T15:22:56.308Z,46.03
2018-11-06T15:25:25.491Z,47.83
2018-11-06T15:27:54.625Z,52.37
2018-11-06T15:30:23.790Z,49.27
2018-11-06T15:32:52.909Z,50.30
2018-11-06T15:35:22.329Z,51.87
2018-11-06T15:37:51.512Z,51.00
2018-11-06T15:40:21.580Z,47.07
2018-11-06T15:42:50.841Z,51.00
2018-11-06T15:45:20.671Z,47.83
2018-11-06T15:47:50.300Z,54.50
2018-11-06T15:50:20.475Z,53.47
2018-11-06T15:52:50.639Z,57.23
2018-11-06T15:55:19.949Z,49.47
2018-11-06T15:57:49.105Z,49.23
2018-11-06T16:00:20.435Z,48.00
2018-11-06T16:02:49.802Z,49.80
2018-11-06T16:05:18.959Z,56.73
2018-11-06T16:07:48.591Z,57.80
2018-11-06T16:10:18.991Z,54.90
2018-11-06T16:12:48.210Z,59.00
2018-11-06T16:15:17.577Z,52.67
2018-11-06T16:17:46.801Z,55.87
2018-11-06T16:20:17.299Z,61.83
2018-11-06T16:22:46.714Z,61.77
2018-11-06T16:25:17.103Z,60.07
2018-11-06T16:27:46.778Z,61.37
2018-11-06T16:30:17.274Z,63.10
2018-11-06T16:32:46.537Z,62.57
2018-11-06T16:35:16.832Z,69.70
2018-11-06T16:37:46.435Z,64.27
2018-11-06T16:40:16.051Z,67.07
2018-11-06T16:42:45.835Z,63.20
2018-11-06T16:45:18.453Z,60.33
2018-11-06T16:47:48.431Z,66.03
2018-11-06T16:50:18.365Z,62.10
2018-11-06T16:52:47.548Z,59.73
2018-11-06T16:55:17.303Z,59.27
2018-11-06T16:57:46.753Z,60.67
2018-11-06T17:00:17.811Z,62.83
2018-11-06T17:02:46.818Z,64.03
2018-11-06T17:05:16.391Z,68.07
2018-11-06T17:07:45.920Z,63.93
2018-11-06T17:10:15.992Z,64.43
2018-11-06T17:12:45.150Z,72.27
2018-11-06T17:15:22.390Z,61.23
2018-11-06T17:17:52.699Z,73.17
2018-11-06T17:20:22.449Z,67.13
2018-11-06T17:22:51.686Z,70.30
2018-11-06T17:25:21.947Z,71.50
2018-11-06T17:27:51.133Z,70.63
2018-11-06T17:30:20.523Z,70.17
2018-11-06T17:32:49.656Z,74.47
2018-11-06T17:35:19.802Z,60.63
2018-11-06T17:37:49.071Z,68.17
2018-11-06T17:40:20.196Z,68.00
2018-11-06T17:42:49.467Z,74.03
2018-11-06T17:45:23.222Z,70.43
2018-11-06T17:47:52.559Z,67.53
2018-11-06T17:50:21.703Z,72.77
2018-11-06T17:52:50.968Z,68.57
2018-11-06T17:55:21.127Z,69.30
2018-11-06T17:57:50.203Z,72.47
2018-11-06T18:00:22.105Z,74.63
2018-11-06T18:02:51.463Z,70.50
2018-11-06T18:05:22.412Z,66.93
2018-11-06T18:07:51.578Z,69.20
2018-11-06T18:10:21.526Z,67.67
2018-11-06T18:12:50.734Z,68.17
2018-11-06T18:15:20.063Z,61.43
2018-11-06T18:17:49.395Z,67.60
2018-11-06T18:20:30.101Z,68.73
2018-11-06T18:22:59.319Z,63.50
2018-11-06T18:25:28.778Z,65.53
2018-11-06T18:27:57.899Z,63.43
2018-11-06T18:30:27.288Z,66.83
2018-11-06T18:32:56.778Z,63.93
2018-11-06T18:35:26.047Z,61.47
2018-11-06T18:37:55.447Z,63.70
2018-11-06T18:40:24.886Z,63.23
2018-11-06T18:42:54.341Z,55.33
2018-11-06T18:45:23.658Z,55.57
2018-11-06T18:47:53.203Z,54.80
2018-11-06T18:50:22.797Z,51.23
2018-11-06T18:52:52.399Z,49.67
2018-11-06T18:55:21.910Z,50.20
2018-11-06T18:57:51.461Z,48.90
2018-11-06T19:00:22.100Z,50.57
2018-11-06T19:02:52.670Z,42.20
2018-11-06T19:05:23.204Z,45.27
2018-11-06T19:07:52.765Z,43.87
2018-11-06T19:10:22.283Z,43.87
2018-11-06T19:12:52.023Z,48.00
2018-11-06T19:15:23.071Z,42.90
2018-11-06T19:17:52.749Z,40.30
2018-11-06T19:20:22.380Z,45.60
2018-11-06T19:22:52.385Z,45.33
2018-11-06T19:25:22.044Z,46.77
2018-11-06T19:27:51.684Z,46.67
2018-11-06T19:30:21.465Z,48.43
2018-11-06T19:32:51.091Z,43.33
2018-11-06T19:35:20.797Z,49.33
2018-11-06T19:37:50.421Z,43.83
2018-11-06T19:40:20.086Z,48.80
2018-11-06T19:42:50.200Z,48.93
2018-11-06T19:45:19.872Z,50.17
2018-11-06T19:47:49.512Z,45.20
2018-11-06T19:50:20.104Z,50.30
2018-11-06T19:52:49.791Z,48.97
2018-11-06T19:55:19.665Z,41.33
2018-11-06T19:57:49.350Z,47.67
2018-11-06T20:00:20.559Z,47.83
2018-11-06T20:02:52.449Z,47.17
2018-11-06T20:05:23.641Z,42.00
2018-11-06T20:07:54.199Z,41.50
2018-11-06T20:10:25.706Z,39.97
2018-11-06T20:12:58.355Z,42.23
2018-11-06T20:15:28.182Z,40.10
2018-11-06T20:17:59.276Z,40.57
2018-11-06T20:20:30.035Z,45.37
2018-11-06T20:23:01.130Z,47.07
2018-11-06T20:25:31.193Z,46.17
2018-11-06T20:28:07.019Z,38.33
2018-11-06T20:30:37.010Z,38.90
2018-11-06T20:33:06.946Z,40.53
2018-11-06T20:35:36.917Z,41.40
2018-11-06T20:38:07.791Z,40.00
2018-11-06T20:40:38.678Z,32.90
2018-11-06T20:43:11.740Z,32.77
2018-11-06T20:45:44.722Z,36.70
2018-11-06T20:48:14.821Z,33.87
2018-11-06T20:50:44.760Z,35.07
2018-11-06T20:53:14.958Z,35.63
2018-11-06T20:55:46.202Z,37.00
2018-11-06T20:58:16.213Z,42.30
2018-11-06T21:00:46.031Z,35.07
2018-11-06T21:03:15.791Z,38.53
2018-11-06T21:05:45.565Z,36.47
2018-11-06T21:08:15.306Z,34.00
2018-11-06T21:10:45.088Z,37.60
2018-11-06T21:13:14.869Z,34.97
2018-11-06T21:15:44.706Z,37.57
2018-11-06T21:18:15.205Z,37.17
2018-11-06T21:20:44.789Z,40.73
2018-11-06T21:23:14.235Z,36.97
2018-11-06T21:25:44.014Z,40.90
2018-11-06T21:28:13.395Z,38.33
2018-11-06T21:30:42.889Z,37.17
2018-11-06T21:33:12.535Z,39.33
2018-11-06T21:35:42.220Z,35.57
2018-11-06T21:38:11.668Z,38.20
2018-11-06T21:40:40.951Z,42.40
2018-11-06T21:43:10.211Z,39.40
2018-11-06T21:45:39.448Z,36.50
2018-11-06T21:48:08.615Z,40.93
2018-11-06T21:50:37.819Z,39.67
2018-11-06T21:53:07.232Z,37.40
2018-11-06T21:55:36.455Z,37.60
2018-11-06T21:58:05.671Z,31.70
2018-11-06T22:00:34.890Z,42.60
2018-11-06T22:03:04.220Z,35.87
2018-11-06T22:05:33.405Z,46.77
2018-11-06T22:08:02.636Z,37.77
2018-11-06T22:10:33.294Z,39.57
2018-11-06T22:13:04.089Z,39.73
2018-11-06T22:15:34.121Z,39.10
2018-11-06T22:18:03.365Z,41.43
2018-11-06T22:20:32.512Z,39.50
2018-11-06T22:23:01.784Z,38.20
2018-11-06T22:25:31.012Z,38.30
2018-11-06T22:28:00.146Z,48.03
2018-11-06T22:30:29.316Z,35.97
2018-11-06T22:32:58.603Z,40.10
2018-11-06T22:35:27.772Z,37.90
2018-11-06T22:37:56.972Z,37.23
2018-11-06T22:40:26.155Z,31.90
2018-11-06T22:42:55.408Z,39.27
2018-11-06T22:45:24.506Z,39.40
2018-11-06T22:47:53.683Z,36.60
2018-11-06T22:50:22.819Z,38.30
2018-11-06T22:52:52.049Z,39.30
2018-11-06T22:55:21.220Z,33.77
2018-11-06T22:57:50.493Z,43.80
2018-11-06T23:00:25.321Z,41.90
2018-11-06T23:02:54.479Z,41.57
2018-11-06T23:05:23.696Z,34.10
2018-11-06T23:07:58.036Z,37.90
2018-11-06T23:10:27.294Z,42.30
2018-11-06T23:12:56.432Z,32.67
2018-11-06T23:15:25.640Z,34.03
2018-11-06T23:17:54.867Z,42.33
2018-11-06T23:20:24.539Z,37.13
2018-11-06T23:22:53.785Z,34.77
2018-11-06T23:25:22.904Z,31.73
2018-11-06T23:27:52.114Z,35.17
2018-11-06T23:30:21.331Z,37.63
2018-11-06T23:32:50.547Z,37.63
2018-11-06T23:35:19.677Z,36.30
2018-11-06T23:37:48.855Z,39.73
2018-11-06T23:40:18.036Z,36.97
2018-11-06T23:42:47.106Z,38.47
2018-11-06T23:45:16.317Z,36.07
2018-11-06T23:47:45.470Z,41.67
2018-11-06T23:50:14.626Z,37.83
2018-11-06T23:52:43.814Z,35.60
2018-11-06T23:55:12.982Z,39.23
2018-11-06T23:57:42.213Z,44.47
